Time;durP1;ratioP1;P1;durP2;ratioP2;P2;SDS_P1;SDS_P2;PMS_P1;PMS_P2;Temp;Humidity;BMP_temperature;BMP_pressure;BME280_temperature;BME280_humidity;BME280_pressure;Samples;Min_cycle;Max_cycle;Signal;HPM_P1;HPM_P2
2022/04/02 00:00:06;;;;;;;;;16.75;14.00;;;;;4.66;60.13;101171.44;5040361;28;46303;-64
2022/04/02 00:02:32;;;;;;;;;13.75;12.00;;;;;4.62;60.18;101174.19;5042951;28;45370;-63
2022/04/02 00:04:57;;;;;;;;;12.00;10.50;;;;;4.58;60.10;101169.94;5051619;28;45305;-62
2022/04/02 00:07:23;;;;;;;;;10.00;10.00;;;;;4.55;59.58;101176.09;5054460;28;45347;-73
2022/04/02 00:09:49;;;;;;;;;9.00;9.00;;;;;4.54;59.09;101179.59;5033001;28;46976;-61
2022/04/02 00:12:14;;;;;;;;;9.25;8.00;;;;;4.52;59.05;101188.38;5042582;28;45514;-61
2022/04/02 00:14:40;;;;;;;;;12.25;8.00;;;;;4.53;58.91;101183.13;5041069;28;45337;-64
2022/04/02 00:17:06;;;;;;;;;8.75;7.00;;;;;4.54;58.66;101176.13;5054205;28;45323;-60
2022/04/02 00:19:31;;;;;;;;;13.00;7.75;;;;;4.57;58.63;101179.50;5049864;28;45394;-63
2022/04/02 00:21:57;;;;;;;;;6.00;6.00;;;;;4.59;58.06;101174.28;5046925;28;45377;-64
2022/04/02 00:24:23;;;;;;;;;7.50;5.75;;;;;4.59;58.61;101179.50;5051166;28;45414;-63
2022/04/02 00:26:48;;;;;;;;;9.00;8.50;;;;;4.61;58.21;101175.94;5054053;28;45630;-61
2022/04/02 00:29:14;;;;;;;;;9.00;6.00;;;;;4.69;58.50;101180.94;5041010;28;45304;-63
2022/04/02 00:31:40;;;;;;;;;11.75;6.50;;;;;4.73;57.29;101174.72;5053605;28;45313;-64
2022/04/02 00:34:07;;;;;;;;;5.75;5.75;;;;;4.71;57.33;101182.59;5040843;28;45572;-62
2022/04/02 00:36:37;;;;;;;;;9.75;7.00;;;;;4.70;56.42;101175.66;5053965;28;45342;-62
2022/04/02 00:39:07;;;;;;;;;6.00;6.00;;;;;4.69;56.43;101175.72;5049277;28;46001;-62
2022/04/02 00:41:32;;;;;;;;;5.00;4.00;;;;;4.68;57.07;101177.47;5059558;28;45466;-61
2022/04/02 00:44:08;;;;;;;;;6.50;4.75;;;;;4.69;57.07;101184.41;5059895;28;45257;-61
2022/04/02 00:46:33;;;;;;;;;5.00;1.50;;;;;4.69;55.87;101165.28;5060211;28;45339;-63
2022/04/02 00:48:59;;;;;;;;;10.00;6.00;;;;;4.65;55.92;101169.72;5060174;28;46162;-62
2022/04/02 00:51:25;;;;;;;;;5.25;5.00;;;;;4.64;55.52;101172.38;5060275;28;45438;-66
2022/04/02 00:53:51;;;;;;;;;6.00;5.00;;;;;4.61;55.79;101173.31;5055338;28;45374;-65
2022/04/02 00:56:18;;;;;;;;;4.50;4.50;;;;;4.60;55.05;101174.22;5053986;28;45690;-64
2022/04/02 00:58:45;;;;;;;;;5.00;4.00;;;;;4.58;55.64;101172.53;5060116;28;46162;-66
2022/04/02 01:01:11;;;;;;;;;3.50;3.50;;;;;4.55;54.89;101172.63;5059341;28;45449;-62
2022/04/02 01:03:37;;;;;;;;;5.00;5.00;;;;;4.52;55.41;101178.78;5062060;28;45308;-63
2022/04/02 01:06:04;;;;;;;;;5.00;4.00;;;;;4.49;54.66;101179.72;5059689;28;45649;-64
2022/04/02 01:08:30;;;;;;;;;4.00;4.00;;;;;4.47;55.16;101180.66;5059760;28;46446;-67
2022/04/02 01:10:56;;;;;;;;;2.00;1.75;;;;;4.46;54.57;101171.97;5059139;28;45440;-61
2022/04/02 01:13:23;;;;;;;;;4.00;4.00;;;;;4.43;54.91;101174.69;5059583;28;45273;-69
2022/04/02 01:15:48;;;;;;;;;5.00;4.00;;;;;4.41;54.79;101173.84;5059318;28;45798;-63
2022/04/02 01:18:14;;;;;;;;;6.00;2.00;;;;;4.40;55.13;101169.53;5059607;28;45364;-69
2022/04/02 01:20:39;;;;;;;;;4.00;4.00;;;;;4.37;54.56;101169.63;5046489;28;45271;-62
2022/04/02 01:23:05;;;;;;;;;5.50;5.00;;;;;4.36;54.97;101170.53;5059307;28;45390;-64
2022/04/02 01:25:34;;;;;;;;;5.00;4.50;;;;;4.32;54.58;101168.88;5059332;28;45229;-65
2022/04/02 01:28:00;;;;;;;;;5.00;2.00;;;;;4.31;55.22;101161.09;5058449;28;45770;-67
2022/04/02 01:30:27;;;;;;;;;5.25;2.00;;;;;4.32;54.96;101168.03;5059268;28;45387;-61
2022/04/02 01:32:53;;;;;;;;;2.00;2.00;;;;;4.32;54.57;101175.84;5059617;28;45452;-65
2022/04/02 01:35:21;;;;;;;;;5.00;4.75;;;;;4.28;55.13;101176.84;5058959;28;45467;-67
2022/04/02 01:37:46;;;;;;;;;4.50;4.50;;;;;4.24;54.66;101173.44;5064094;28;45300;-67
2022/04/02 01:40:12;;;;;;;;;4.25;4.00;;;;;4.23;55.44;101176.94;5057089;28;45281;-66
2022/04/02 01:42:37;;;;;;;;;2.00;2.00;;;;;4.23;54.85;101187.38;5060100;28;45254;-64
2022/04/02 01:45:04;;;;;;;;;4.50;2.50;;;;;4.20;55.03;101177.91;5059437;28;45501;-62
2022/04/02 01:47:29;;;;;;;;;4.75;4.25;;;;;4.18;54.85;101187.50;5059568;28;46448;-63
2022/04/02 01:49:55;;;;;;;;;4.25;3.50;;;;;4.15;54.91;101190.19;5059508;28;45347;-65
2022/04/02 01:52:20;;;;;;;;;4.00;2.50;;;;;4.13;55.01;101185.91;5059607;28;45528;-67
2022/04/02 01:54:47;;;;;;;;;5.75;3.50;;;;;4.12;55.02;101190.28;5058510;28;45471;-63
2022/04/02 01:57:14;;;;;;;;;8.00;3.00;;;;;4.10;55.32;101186.84;5061500;28;45445;-68
2022/04/02 01:59:40;;;;;;;;;3.50;3.50;;;;;4.10;54.72;101191.19;5057197;28;45572;-68
2022/04/02 02:02:08;;;;;;;;;9.00;5.00;;;;;4.09;54.82;101194.69;5044843;28;45330;-66
2022/04/02 02:04:34;;;;;;;;;3.50;2.50;;;;;4.08;55.42;101199.06;5052173;28;45515;-63
2022/04/02 02:07:00;;;;;;;;;9.50;5.00;;;;;4.05;54.86;101199.16;5050648;28;45858;-65
2022/04/02 02:09:26;;;;;;;;;3.00;2.00;;;;;4.05;55.23;101199.16;5053743;28;45385;-65
2022/04/02 02:11:52;;;;;;;;;3.50;2.00;;;;;4.04;54.94;101202.66;5052185;28;45491;-65
2022/04/02 02:14:17;;;;;;;;;5.00;4.75;;;;;4.03;54.98;101206.16;5050605;28;45423;-65
2022/04/02 02:16:43;;;;;;;;;6.75;4.00;;;;;4.02;55.23;101201.81;5051351;28;46437;-65
2022/04/02 02:19:08;;;;;;;;;4.75;4.00;;;;;4.03;55.15;101206.16;5049468;28;45324;-66
2022/04/02 02:21:34;;;;;;;;;5.75;5.25;;;;;4.01;55.06;101214.88;5052512;28;45562;-65
2022/04/02 02:24:00;;;;;;;;;4.00;4.00;;;;;3.98;54.55;101208.00;5053451;28;45621;-65
2022/04/02 02:26:25;;;;;;;;;5.00;4.00;;;;;3.96;54.79;101201.13;5052841;28;46006;-65
2022/04/02 02:28:51;;;;;;;;;4.75;3.50;;;;;3.95;55.12;101202.88;5055459;28;45331;-65
2022/04/02 02:31:16;;;;;;;;;4.25;4.00;;;;;3.95;55.24;101197.66;5052961;28;45317;-65
2022/04/02 02:36:26;;;;;;;;;5.00;4.25;;;;;3.87;55.36;101196.97;5051646;28;45871;-65
2022/04/02 02:38:52;;;;;;;;;6.00;5.25;;;;;3.86;55.51;101206.53;5057788;28;45347;-64
2022/04/02 02:41:18;;;;;;;;;6.50;6.50;;;;;3.83;55.44;101209.22;5053877;28;45173;-66
2022/04/02 02:43:43;;;;;;;;;4.50;3.00;;;;;3.79;55.36;101215.41;5051001;28;45288;-64
2022/04/02 02:46:12;;;;;;;;;4.25;4.25;;;;;3.75;55.61;101213.75;5050711;28;45379;-64
2022/04/02 02:48:38;;;;;;;;;5.00;5.00;;;;;3.72;55.61;101223.41;5053600;28;45367;-64
2022/04/02 02:51:03;;;;;;;;;6.00;5.75;;;;;3.69;55.83;101220.88;5051818;28;45319;-65
2022/04/02 02:53:29;;;;;;;;;5.25;2.50;;;;;3.67;56.05;101228.72;5052770;28;45302;-64
2022/04/02 02:55:54;;;;;;;;;6.00;6.00;;;;;3.66;55.97;101227.00;5050255;28;45304;-64
2022/04/02 02:58:19;;;;;;;;;6.50;4.50;;;;;3.64;56.02;101221.84;5049111;28;45300;-64
2022/04/02 03:00:46;;;;;;;;;5.00;4.00;;;;;3.64;55.86;101224.44;5051698;28;45366;-64
2022/04/02 03:03:12;;;;;;;;;8.50;8.00;;;;;3.61;55.83;101228.84;5050683;28;45380;-64
2022/04/02 03:05:37;;;;;;;;;8.50;3.00;;;;;3.59;55.83;101225.44;5052773;28;45998;-64
2022/04/02 03:08:03;;;;;;;;;9.00;7.00;;;;;3.57;56.23;101225.47;5053755;28;45479;-64
2022/04/02 03:10:29;;;;;;;;;3.50;3.50;;;;;3.56;56.39;101230.72;5052471;28;45392;-64
2022/04/02 03:12:57;;;;;;;;;4.00;4.00;;;;;3.56;55.89;101234.19;5053797;28;45514;-64
2022/04/02 03:15:24;;;;;;;;;8.00;4.75;;;;;3.56;56.56;101243.75;5051044;28;46130;-64
2022/04/02 03:17:51;;;;;;;;;11.00;6.00;;;;;3.54;56.40;101235.94;5051096;28;45427;-64
2022/04/02 03:20:19;;;;;;;;;9.00;4.75;;;;;3.54;56.50;101235.09;5047112;28;45259;-64
2022/04/02 03:22:47;;;;;;;;;6.25;4.00;;;;;3.53;56.44;101246.41;5049903;28;45308;-65
2022/04/02 03:25:14;;;;;;;;;5.00;5.00;;;;;3.49;56.09;101237.81;5050797;28;46422;-64
2022/04/02 03:27:43;;;;;;;;;7.00;5.00;;;;;3.48;56.85;101240.47;5051355;28;45229;-64
2022/04/02 03:30:10;;;;;;;;;10.75;8.75;;;;;3.46;56.74;101240.47;5052425;28;45491;-64
2022/04/02 03:32:36;;;;;;;;;13.00;11.75;;;;;3.43;56.65;101239.69;5052736;28;45455;-64
2022/04/02 03:35:02;;;;;;;;;7.00;6.25;;;;;3.39;56.67;101232.81;5052665;28;45473;-65
2022/04/02 03:37:30;;;;;;;;;6.25;6.25;;;;;3.39;56.95;101238.88;5051401;28;45332;-66
2022/04/02 03:39:57;;;;;;;;;11.00;6.50;;;;;3.39;57.25;101240.63;5050658;28;45423;-64
2022/04/02 03:42:22;;;;;;;;;11.25;8.00;;;;;3.38;56.99;101244.97;5050939;28;45300;-64
2022/04/02 03:44:49;;;;;;;;;10.00;5.75;;;;;3.37;57.04;101243.28;5050347;28;45384;-64
2022/04/02 03:47:15;;;;;;;;;5.00;5.00;;;;;3.35;56.99;101237.25;5051514;28;45312;-64
2022/04/02 03:49:46;;;;;;;;;8.25;7.75;;;;;3.33;57.09;101244.25;5053831;28;45273;-64
2022/04/02 03:52:12;;;;;;;;;4.75;4.50;;;;;3.32;57.56;101242.53;5054500;28;45491;-65
2022/04/02 03:54:39;;;;;;;;;15.00;7.75;;;;;3.29;57.34;101251.25;5050562;28;46167;-65
2022/04/02 03:57:12;;;;;;;;;4.75;4.50;;;;;3.26;57.00;101247.88;5050429;28;45577;-65
2022/04/02 03:59:38;;;;;;;;;6.25;6.25;;;;;3.27;57.33;101249.56;5049723;28;45178;-65
2022/04/02 04:02:06;;;;;;;;;5.75;4.00;;;;;3.25;57.18;101246.16;5052709;28;45515;-64
2022/04/02 04:04:32;;;;;;;;;11.00;7.50;;;;;3.25;57.19;101251.38;5051605;28;45467;-65
2022/04/02 04:06:59;;;;;;;;;4.25;4.00;;;;;3.24;57.47;101252.22;5052756;28;45366;-65
2022/04/02 04:09:25;;;;;;;;;6.00;5.00;;;;;3.23;57.57;101247.91;5050889;28;45223;-65
2022/04/02 04:11:50;;;;;;;;;7.25;6.00;;;;;3.22;57.82;101254.00;5052160;28;45233;-65
2022/04/02 04:14:16;;;;;;;;;6.50;6.25;;;;;3.22;57.35;101249.66;5051883;28;45285;-65
2022/04/02 04:16:42;;;;;;;;;5.50;5.00;;;;;3.20;57.11;101255.78;5051673;28;45245;-64
2022/04/02 04:19:08;;;;;;;;;8.75;7.75;;;;;3.19;57.18;101259.28;5049917;28;45502;-65
2022/04/02 04:21:34;;;;;;;;;8.00;5.50;;;;;3.18;57.59;101262.78;5050255;28;45618;-65
2022/04/02 04:24:00;;;;;;;;;7.50;5.50;;;;;3.19;57.90;101265.34;5049128;28;45938;-65
2022/04/02 04:26:26;;;;;;;;;7.75;5.50;;;;;3.16;57.60;101260.22;5049170;28;45517;-64
2022/04/02 04:28:51;;;;;;;;;11.00;8.00;;;;;3.16;57.51;101261.94;5050065;28;45443;-65
2022/04/02 04:31:18;;;;;;;;;6.50;6.50;;;;;3.14;57.71;101268.94;5050032;28;45439;-65
2022/04/02 04:33:44;;;;;;;;;8.25;7.00;;;;;3.17;57.91;101277.56;5050415;28;45355;-65
2022/04/02 04:36:10;;;;;;;;;7.75;5.50;;;;;3.19;57.53;101277.50;5051133;28;45418;-65
2022/04/02 04:38:36;;;;;;;;;8.50;8.00;;;;;3.20;57.80;101277.47;5051745;28;45243;-65
2022/04/02 04:41:02;;;;;;;;;8.00;8.00;;;;;3.18;57.67;101283.59;5051362;28;45671;-65
2022/04/02 04:43:28;;;;;;;;;9.50;7.50;;;;;3.19;57.84;101286.19;5049747;28;45460;-65
2022/04/02 04:45:54;;;;;;;;;4.75;4.00;;;;;3.17;58.03;101290.56;5050340;28;45468;-65
2022/04/02 04:48:20;;;;;;;;;6.00;5.00;;;;;3.16;57.41;101282.75;5050724;28;45320;-65
2022/04/02 04:50:47;;;;;;;;;6.75;6.50;;;;;3.16;57.95;101295.78;5051718;28;45471;-65
2022/04/02 04:53:14;;;;;;;;;6.00;5.00;;;;;3.18;57.64;101297.47;5052079;28;46552;-65
2022/04/02 04:55:40;;;;;;;;;9.00;6.75;;;;;3.19;57.58;101295.72;5048991;28;45280;-65
2022/04/02 04:58:05;;;;;;;;;9.25;6.00;;;;;3.19;57.96;101303.53;5050348;28;45312;-64
2022/04/02 05:00:32;;;;;;;;;6.50;6.50;;;;;3.18;58.15;101301.84;5051270;28;45539;-65
2022/04/02 05:02:58;;;;;;;;;15.25;5.50;;;;;3.17;57.27;101303.59;5050733;28;45214;-65
2022/04/02 05:05:25;;;;;;;;;7.75;4.25;;;;;3.15;57.58;101313.13;5051824;28;45375;-65
2022/04/02 05:07:52;;;;;;;;;7.75;6.00;;;;;3.13;57.88;101307.13;5050788;28;45447;-65
2022/04/02 05:10:18;;;;;;;;;7.25;6.50;;;;;3.14;58.04;101316.63;5050148;28;45586;-65
2022/04/02 05:12:43;;;;;;;;;11.75;7.75;;;;;3.13;57.83;101320.13;5049183;28;45462;-65
2022/04/02 05:15:09;;;;;;;;;4.50;4.00;;;;;3.13;57.74;101319.28;5048829;28;45448;-65
2022/04/02 05:17:38;;;;;;;;;6.25;6.25;;;;;3.13;57.68;101321.88;5048744;28;45238;-65
2022/04/02 05:20:06;;;;;;;;;16.50;7.00;;;;;3.14;57.74;101318.38;5049687;28;45232;-65
2022/04/02 05:22:32;;;;;;;;;8.50;6.25;;;;;3.14;57.87;101319.25;5050931;28;45411;-65
2022/04/02 05:24:57;;;;;;;;;11.00;8.00;;;;;3.15;58.00;101327.91;5050763;28;45328;-65
2022/04/02 05:27:24;;;;;;;;;6.00;4.00;;;;;3.12;57.64;101326.22;5051428;28;45360;-65
2022/04/02 05:29:51;;;;;;;;;7.75;5.50;;;;;3.12;57.52;101325.38;5050295;28;45419;-65
2022/04/02 05:32:17;;;;;;;;;12.50;7.00;;;;;3.11;57.75;101327.13;5051841;28;46441;-65
2022/04/02 05:34:43;;;;;;;;;9.50;6.25;;;;;3.11;57.81;101334.06;5052305;28;45256;-65
2022/04/02 05:37:08;;;;;;;;;10.25;8.00;;;;;3.11;57.38;101334.94;5051710;28;45430;-65
2022/04/02 05:39:34;;;;;;;;;5.50;5.00;;;;;3.12;57.32;101331.44;5056237;28;46313;-65
2022/04/02 05:42:00;;;;;;;;;16.50;8.00;;;;;3.12;57.54;101338.38;5049457;28;46212;-65
2022/04/02 05:44:26;;;;;;;;;9.00;5.00;;;;;3.14;57.42;101341.81;5035853;28;45410;-65
2022/04/02 05:46:52;;;;;;;;;6.50;6.50;;;;;3.14;57.22;101342.66;5055264;28;45438;-65
2022/04/02 05:49:17;;;;;;;;;6.00;5.00;;;;;3.13;57.66;101345.31;5052411;28;45533;-65
2022/04/02 05:51:43;;;;;;;;;7.25;6.50;;;;;3.13;57.39;101351.38;5048156;28;46083;-65
2022/04/02 05:54:09;;;;;;;;;9.00;5.25;;;;;3.16;57.61;101351.31;5053637;28;45534;-64
2022/04/02 05:56:35;;;;;;;;;15.25;7.25;;;;;3.18;57.36;101341.75;5053763;28;45217;-65
2022/04/02 05:59:03;;;;;;;;;6.00;5.75;;;;;3.22;57.71;101345.13;5050985;28;45441;-65
2022/04/02 06:01:29;;;;;;;;;5.00;5.00;;;;;3.28;57.83;101355.44;5052361;28;46533;-65
2022/04/02 06:03:54;;;;;;;;;10.00;5.75;;;;;3.34;57.51;101355.31;5050977;28;45463;-65
2022/04/02 06:06:20;;;;;;;;;8.00;7.25;;;;;3.44;57.45;101364.66;5055196;28;45502;-65
2022/04/02 06:08:45;;;;;;;;;11.50;7.50;;;;;3.57;57.41;101360.94;5054678;28;45487;-65
2022/04/02 06:11:11;;;;;;;;;12.00;6.25;;;;;3.76;56.99;101368.34;5051527;28;46117;-65
2022/04/02 06:13:36;;;;;;;;;7.50;5.50;;;;;3.91;56.92;101373.25;5054255;28;45276;-65
2022/04/02 06:16:02;;;;;;;;;6.50;4.75;;;;;4.06;57.15;101372.06;5052763;28;45339;-65
2022/04/02 06:18:28;;;;;;;;;6.50;6.25;;;;;4.12;56.37;101374.53;5054813;28;45436;-66
2022/04/02 06:20:53;;;;;;;;;2.50;2.00;;;;;4.19;56.38;101381.31;5051313;28;46087;-65
2022/04/02 06:23:18;;;;;;;;;10.50;7.75;;;;;4.31;56.45;101388.00;5053641;28;45284;-65
2022/04/02 06:25:44;;;;;;;;;11.50;6.25;;;;;4.43;56.62;101383.38;5052690;28;45488;-64
2022/04/02 06:28:10;;;;;;;;;8.25;7.00;;;;;4.54;56.07;101383.09;5044269;28;45447;-65
2022/04/02 06:30:36;;;;;;;;;6.25;5.50;;;;;4.64;55.59;101395.00;5053355;28;45301;-65
2022/04/02 06:33:02;;;;;;;;;4.75;4.00;;;;;4.76;55.91;101386.91;5052637;28;45213;-65
2022/04/02 06:35:28;;;;;;;;;12.50;7.00;;;;;4.88;56.22;101384.88;5052663;28;45364;-65
2022/04/02 06:37:54;;;;;;;;;6.00;6.00;;;;;4.94;55.14;101389.94;5055315;28;45557;-65
2022/04/02 06:40:21;;;;;;;;;6.50;5.00;;;;;5.00;55.67;101395.00;5052232;28;45391;-64
2022/04/02 06:42:47;;;;;;;;;8.00;6.00;;;;;5.05;55.37;101393.13;5051158;28;45425;-64
2022/04/02 06:45:13;;;;;;;;;7.00;4.00;;;;;5.13;55.18;101405.97;5050149;28;45449;-59
2022/04/02 06:47:40;;;;;;;;;8.25;6.00;;;;;5.17;55.16;101403.25;5044705;28;45490;-65
2022/04/02 06:50:08;;;;;;;;;5.50;5.00;;;;;5.24;54.22;101415.25;5049719;28;47098;-65
2022/04/02 06:52:34;;;;;;;;;13.00;6.00;;;;;5.27;54.38;101403.88;5051849;28;45251;-64
2022/04/02 06:55:00;;;;;;;;;8.75;5.75;;;;;5.31;54.29;101411.59;5051353;28;45376;-61
2022/04/02 06:57:25;;;;;;;;;5.00;5.00;;;;;5.28;54.15;101411.66;5051748;28;45435;-64
2022/04/02 06:59:51;;;;;;;;;6.00;6.00;;;;;5.35;54.88;101424.56;5049551;28;45420;-64
2022/04/02 07:02:16;;;;;;;;;8.25;5.00;;;;;5.38;53.69;101421.88;5049335;28;45416;-64
2022/04/02 07:04:42;;;;;;;;;5.00;4.00;;;;;5.39;53.59;101423.59;5056147;28;45414;-65
2022/04/02 07:07:09;;;;;;;;;5.00;5.00;;;;;5.30;53.59;101425.56;5056724;28;45580;-65
2022/04/02 07:09:35;;;;;;;;;12.50;9.00;;;;;5.27;54.31;101432.59;5056096;28;45315;-64
2022/04/02 07:12:02;;;;;;;;;8.00;5.00;;;;;5.24;53.45;101432.69;5056738;28;45427;-64
2022/04/02 07:14:28;;;;;;;;;6.75;5.50;;;;;5.22;53.25;101427.50;5056763;28;45245;-64
2022/04/02 07:16:54;;;;;;;;;5.00;4.00;;;;;5.26;55.01;101436.09;5048719;28;45305;-65
2022/04/02 07:19:21;;;;;;;;;6.00;4.25;;;;;5.29;53.81;101430.78;5057182;28;46590;-64
2022/04/02 07:21:47;;;;;;;;;6.00;5.00;;;;;5.30;54.18;101436.00;5056343;28;45371;-64
2022/04/02 07:24:15;;;;;;;;;6.00;5.25;;;;;5.33;54.72;101432.44;5057782;28;45840;-64
2022/04/02 07:26:41;;;;;;;;;4.25;4.00;;;;;5.37;53.88;101434.06;5056523;28;45321;-64
2022/04/02 07:29:09;;;;;;;;;7.00;4.00;;;;;5.38;53.08;101437.56;5048988;28;45654;-64
2022/04/02 07:31:34;;;;;;;;;5.25;3.75;;;;;5.34;52.42;101449.81;5054367;28;45482;-64
2022/04/02 07:34:00;;;;;;;;;7.00;5.00;;;;;5.37;53.70;101451.50;5056343;28;45410;-64
2022/04/02 07:36:49;;;;;;;;;5.50;5.50;;;;;5.38;53.11;101443.63;5056291;28;45533;-64
2022/04/02 07:39:21;;;;;;;;;4.00;3.50;;;;;5.41;54.10;101451.38;5053681;28;45395;-64
2022/04/02 07:42:08;;;;;;;;;9.00;5.50;;;;;5.46;53.21;101459.13;5052143;28;46869;-64
2022/04/02 07:44:39;;;;;;;;;5.75;5.00;;;;;5.49;52.48;101459.88;5051229;28;45244;-64
2022/04/02 07:47:06;;;;;;;;;2.50;1.00;;;;;5.46;52.03;101459.13;5060165;28;45558;-64
2022/04/02 07:49:35;;;;;;;;;8.00;6.25;;;;;5.47;53.07;101459.06;5060085;28;45655;-64
2022/04/02 07:52:02;;;;;;;;;6.75;6.50;;;;;5.52;53.08;101467.63;5061557;28;45236;-64
2022/04/02 07:54:34;;;;;;;;;7.75;5.00;;;;;5.61;53.43;101463.94;5060353;28;45284;-64
2022/04/02 07:57:03;;;;;;;;;4.75;4.75;;;;;5.61;52.86;101471.78;5061683;28;45152;-64
2022/04/02 07:59:38;;;;;;;;;8.00;6.00;;;;;5.59;52.54;101466.56;5061158;28;46288;-65
2022/04/02 08:02:04;;;;;;;;;9.00;7.00;;;;;5.62;52.44;101475.25;5061284;28;45361;-64
2022/04/02 08:04:30;;;;;;;;;5.25;4.00;;;;;5.63;53.13;101479.56;5061221;28;45555;-64
2022/04/02 08:06:57;;;;;;;;;11.00;5.00;;;;;5.64;52.57;101466.44;5037784;28;45321;-65
2022/04/02 08:09:25;;;;;;;;;6.50;5.50;;;;;5.66;52.46;101482.09;5038510;28;45634;-64
2022/04/02 08:11:52;;;;;;;;;7.25;5.25;;;;;5.66;51.17;101493.41;5060923;28;45446;-65
2022/04/02 08:14:22;;;;;;;;;11.50;5.00;;;;;5.71;51.89;101482.81;5055346;28;45239;-66
2022/04/02 08:16:48;;;;;;;;;5.25;5.25;;;;;5.80;51.17;101493.03;5048907;28;45265;-66
2022/04/02 08:19:19;;;;;;;;;6.50;4.50;;;;;5.84;50.79;101482.44;5047929;28;45529;-65
2022/04/02 08:21:45;;;;;;;;;2.00;2.00;;;;;5.87;50.93;101489.34;5049607;28;45800;-67
2022/04/02 08:24:11;;;;;;;;;9.00;5.00;;;;;5.89;48.84;101493.63;5051020;28;45479;-65
2022/04/02 08:26:45;;;;;;;;;7.50;5.00;;;;;5.90;49.81;101489.25;5052078;28;45581;-66
2022/04/02 08:29:30;;;;;;;;;5.00;4.75;;;;;6.01;50.23;101481.16;5060987;28;46268;-65
2022/04/02 08:31:59;;;;;;;;;5.00;3.25;;;;;6.13;49.51;101496.47;5054266;28;45333;-64
2022/04/02 08:34:36;;;;;;;;;2.25;2.25;;;;;6.19;49.27;101492.84;5049954;28;45853;-64
2022/04/02 08:37:15;;;;;;;;;3.00;2.25;;;;;6.21;47.42;101499.72;5050309;28;45610;-65
2022/04/02 08:39:56;;;;;;;;;6.00;2.75;;;;;6.24;48.86;101498.78;5047223;28;46499;-64
2022/04/02 08:42:43;;;;;;;;;2.75;2.75;;;;;6.29;47.44;101496.91;5051026;28;45320;-65
2022/04/02 08:45:10;;;;;;;;;2.50;2.00;;;;;6.31;48.44;101488.09;5050149;28;45228;-64
2022/04/02 08:48:12;;;;;;;;;4.50;3.25;;;;;6.39;48.48;101500.94;5050247;28;45356;-64
2022/04/02 08:50:50;;;;;;;;;6.75;5.50;;;;;6.49;48.29;101502.41;5049651;28;45552;-65
2022/04/02 08:53:17;;;;;;;;;6.00;5.00;;;;;6.55;48.55;101506.56;5047019;28;45296;-64
2022/04/02 08:55:47;;;;;;;;;6.00;2.75;;;;;6.62;48.59;101511.59;5052568;28;45441;-64
2022/04/02 08:58:34;;;;;;;;;6.00;5.00;;;;;6.61;47.25;101519.50;5049499;28;45613;-64
2022/04/02 09:01:09;;;;;;;;;2.00;2.00;;;;;6.67;46.99;101506.22;5050346;28;45443;-64
2022/04/02 09:03:54;;;;;;;;;4.50;3.00;;;;;6.68;47.53;101508.78;5051404;28;45397;-65
2022/04/02 09:06:58;;;;;;;;;5.00;2.25;;;;;6.93;47.17;101518.50;5031845;28;45451;-65
2022/04/02 09:09:35;;;;;;;;;8.00;5.00;;;;;7.07;47.89;101515.44;5053433;28;45229;-65
2022/04/02 09:12:35;;;;;;;;;6.50;4.00;;;;;7.22;46.82;101501.84;5052773;28;46272;-65
2022/04/02 09:15:09;;;;;;;;;5.00;5.00;;;;;7.40;45.66;101513.47;5052706;28;45443;-65
2022/04/02 09:18:00;;;;;;;;;6.75;4.50;;;;;7.36;46.41;101514.50;5053012;28;45246;-65
2022/04/02 09:20:33;;;;;;;;;5.50;5.00;;;;;7.48;46.31;101517.53;5040062;28;45528;-66
2022/04/02 09:23:40;;;;;;;;;6.50;3.00;;;;;7.67;45.63;101519.56;5054439;28;45584;-65
2022/04/02 09:26:18;;;;;;;;;3.50;2.50;;;;;7.63;45.04;101510.91;5053383;28;45415;-65
2022/04/02 09:28:59;;;;;;;;;6.00;3.50;;;;;7.54;44.69;101519.09;5053411;28;45430;-65
2022/04/02 09:31:30;;;;;;;;;3.00;3.00;;;;;7.39;45.02;101512.63;5049504;28;45391;-65
2022/04/02 09:34:20;;;;;;;;;2.25;2.25;;;;;7.42;43.53;101519.50;5062791;28;45386;-66
2022/04/02 09:36:59;;;;;;;;;3.00;3.00;;;;;7.45;43.40;101522.91;5063618;28;45395;-64
2022/04/02 09:39:39;;;;;;;;;4.50;3.00;;;;;7.69;43.64;101515.09;5062591;28;45352;-62
2022/04/02 09:42:18;;;;;;;;;3.00;2.50;;;;;7.83;43.13;101533.84;5050161;28;45521;-66
2022/04/02 09:44:53;;;;;;;;;3.00;3.00;;;;;8.04;43.26;101524.31;5059907;28;46232;-62
2022/04/02 09:47:22;;;;;;;;;2.50;2.50;;;;;8.18;43.12;101510.72;5063564;28;45496;-62
2022/04/02 09:50:10;;;;;;;;;6.75;5.75;;;;;7.99;42.85;101532.38;5062021;28;45262;-62
2022/04/02 09:52:45;;;;;;;;;3.00;3.00;;;;;7.69;41.83;101520.34;5063598;28;45368;-61
2022/04/02 09:55:13;;;;;;;;;5.00;2.00;;;;;7.46;42.76;101519.38;5063129;28;45408;-60
2022/04/02 09:58:02;;;;;;;;;6.75;2.75;;;;;7.38;42.72;101515.28;5060597;28;45335;-60
2022/04/02 10:00:45;;;;;;;;;3.00;3.00;;;;;7.37;42.48;101522.31;5063645;28;45378;-61
2022/04/02 10:03:41;;;;;;;;;5.00;5.00;;;;;7.49;42.79;101528.88;5063257;28;45174;-61
2022/04/02 10:06:24;;;;;;;;;5.25;5.00;;;;;7.68;41.92;101529.97;5063103;28;45693;-60
2022/04/02 10:09:04;;;;;;;;;6.00;3.00;;;;;7.77;42.04;101532.28;5068619;28;44948;-68
2022/04/02 10:11:31;;;;;;;;;2.00;2.00;;;;;7.86;40.84;101523.22;5073636;28;44730;-61
2022/04/02 10:14:00;;;;;;;;;5.75;2.25;;;;;7.97;41.00;101534.19;5053278;28;45607;-61
2022/04/02 10:16:28;;;;;;;;;6.00;3.50;;;;;8.07;38.88;101534.72;5056595;28;46281;-61
2022/04/02 10:18:58;;;;;;;;;2.75;2.50;;;;;8.12;40.49;101519.66;5048990;28;45447;-62
2022/04/02 10:21:25;;;;;;;;;4.25;2.75;;;;;8.23;41.26;101504.41;5049171;28;45445;-62
2022/04/02 10:24:04;;;;;;;;;5.00;2.25;;;;;8.34;38.81;101564.34;5052945;28;45430;-62
2022/04/02 10:26:41;;;;;;;;;1.50;1.00;;;;;8.26;40.01;101511.28;5053580;28;46193;-62
2022/04/02 10:29:11;;;;;;;;;2.00;2.00;;;;;8.34;39.63;101531.09;5051693;28;45391;-63
2022/04/02 10:31:56;;;;;;;;;2.50;1.50;;;;;8.41;39.73;101538.78;5049114;28;45247;-63
2022/04/02 10:34:31;;;;;;;;;5.00;5.00;;;;;8.39;39.07;101536.22;5051272;28;45273;-60
2022/04/02 10:37:08;;;;;;;;;4.75;2.00;;;;;8.45;38.94;101532.47;5050113;28;45585;-65
2022/04/02 10:39:44;;;;;;;;;2.75;2.00;;;;;8.51;39.26;101519.97;5050766;28;45415;-69
2022/04/02 10:42:16;;;;;;;;;3.00;1.50;;;;;8.73;38.57;101534.91;5052400;28;45517;-68
2022/04/02 10:44:55;;;;;;;;;3.75;2.00;;;;;8.81;37.70;101530.22;5053474;28;45245;-68
2022/04/02 10:47:27;;;;;;;;;2.00;2.00;;;;;8.75;37.71;101509.44;5053626;28;46094;-67
2022/04/02 10:50:06;;;;;;;;;2.75;2.75;;;;;8.80;38.18;101518.00;5048826;28;45693;-67
2022/04/02 10:52:32;;;;;;;;;3.00;3.00;;;;;8.89;38.74;101507.13;5049721;28;45430;-68
2022/04/02 10:54:58;;;;;;;;;4.75;4.75;;;;;9.01;39.04;101517.16;5055180;28;45586;-67
2022/04/02 10:57:27;;;;;;;;;4.00;2.25;;;;;9.00;38.40;101525.94;5042494;28;45324;-69
2022/04/02 11:00:07;;;;;;;;;3.50;3.50;;;;;9.02;38.76;101504.88;5042468;28;45361;-67
2022/04/02 11:02:49;;;;;;;;;4.25;4.00;;;;;9.15;39.15;101498.19;5042447;28;45302;-66
2022/04/02 11:05:17;;;;;;;;;3.00;1.75;;;;;9.24;38.98;101505.69;5042667;28;45546;-66
2022/04/02 11:07:49;;;;;;;;;3.00;2.00;;;;;9.33;38.97;101507.94;5042279;28;46270;-67
2022/04/02 11:10:18;;;;;;;;;3.00;3.00;;;;;9.41;38.23;101524.25;5070768;28;45281;-68
2022/04/02 11:12:46;;;;;;;;;4.25;2.50;;;;;9.44;37.03;101513.59;5042499;28;45384;-71
2022/04/02 11:15:16;;;;;;;;;2.00;2.00;;;;;9.33;35.73;101505.31;5042292;28;45445;-65
2022/04/02 11:17:44;;;;;;;;;2.50;1.50;;;;;9.19;36.77;101503.25;5042136;28;46063;-62
2022/04/02 11:20:27;;;;;;;;;1.00;1.00;;;;;9.22;35.40;101495.22;5042237;28;45234;-63
2022/04/02 11:22:57;;;;;;;;;2.25;2.00;;;;;9.26;36.29;101497.75;5042284;28;45422;-62
2022/04/02 11:25:29;;;;;;;;;2.75;2.25;;;;;9.41;36.12;101505.84;5041880;28;45149;-62
2022/04/02 11:28:10;;;;;;;;;85.00;62.67;;;;;9.62;41.51;101511.09;5041417;28;46196;-61
2022/04/02 11:30:36;;;;;;;;;47.00;34.25;;;;;9.86;39.82;101512.66;5049579;28;45411;-57
2022/04/02 11:33:08;;;;;;;;;30.00;24.75;;;;;9.96;41.33;101500.84;5061408;28;45359;-60
2022/04/02 11:35:39;;;;;;;;;3.00;2.00;;;;;10.14;37.37;101519.34;5041973;28;45428;-61
2022/04/02 11:38:14;;;;;;;;;2.50;2.25;;;;;9.95;36.21;101521.94;5057510;28;46706;-63
2022/04/02 11:40:50;;;;;;;;;3.00;2.00;;;;;9.56;34.25;101527.13;5057417;28;45331;-62
2022/04/02 11:43:18;;;;;;;;;1.00;1.00;;;;;9.21;35.44;101511.06;5068655;28;45234;-62